createdAt,value
2022-08-15T00:00:00.475Z,21.08
2022-08-15T00:01:00.709Z,21.05
2022-08-15T00:01:59.536Z,21.04
2022-08-15T00:03:11.040Z,21.03
2022-08-15T00:04:34.193Z,21.01
2022-08-15T00:05:30.380Z,21.07
2022-08-15T00:06:50.526Z,21.14
2022-08-15T00:07:53.614Z,21.05
2022-08-15T00:09:04.763Z,21.01
2022-08-15T00:11:18.151Z,21.03
2022-08-15T00:11:40.747Z,21.11
2022-08-15T00:12:41.509Z,21.15
2022-08-15T00:14:00.866Z,21.03
2022-08-15T00:14:43.947Z,21.07
2022-08-15T00:15:51.541Z,21.03
2022-08-15T00:16:42.605Z,21.15
2022-08-15T00:17:56.700Z,21.11
2022-08-15T00:18:46.115Z,21.11
2022-08-15T00:19:46.339Z,21.22
2022-08-15T00:20:59.214Z,21.15
2022-08-15T00:21:49.190Z,21.19
2022-08-15T00:22:49.173Z,21.19
2022-08-15T00:23:46.440Z,21.11
2022-08-15T00:24:51.980Z,21.11
2022-08-15T00:25:58.135Z,21.13
2022-08-15T00:27:40.639Z,21.08
2022-08-15T00:28:58.610Z,21.17
2022-08-15T00:29:45.308Z,21.13
2022-08-15T00:31:01.455Z,21.1
2022-08-15T00:31:47.117Z,21.03
2022-08-15T00:33:29.757Z,21.05
2022-08-15T00:33:51.275Z,21.04
2022-08-15T00:34:50.959Z,21.11
2022-08-15T00:36:55.126Z,21.04
2022-08-15T00:37:19.656Z,21.04
2022-08-15T00:38:47.707Z,21.03
2022-08-15T00:39:39.731Z,21.01
2022-08-15T00:40:38.297Z,21.07
2022-08-15T00:41:42.935Z,21.1
2022-08-15T00:42:38.353Z,21.1
2022-08-15T00:43:37.622Z,21.03
2022-08-15T00:45:21.097Z,21.08
2022-08-15T00:46:01.541Z,21.03
2022-08-15T00:46:50.765Z,20.98
2022-08-15T00:47:52.295Z,21.05
2022-08-15T00:48:52.086Z,21.1
2022-08-15T00:50:34.951Z,20.98
2022-08-15T00:50:56.118Z,21.03
2022-08-15T00:52:00.017Z,21.05
2022-08-15T00:52:59.567Z,21
2022-08-15T00:53:59.623Z,21.08
2022-08-15T00:55:05.559Z,21.04
2022-08-15T00:56:05.446Z,21.01
2022-08-15T00:57:11.019Z,21.03
2022-08-15T00:58:38.375Z,21.04
2022-08-15T01:00:01.159Z,21.04
2022-08-15T01:00:51.253Z,21.05
2022-08-15T01:02:35.755Z,21.07
2022-08-15T01:02:53.912Z,21.03
2022-08-15T01:04:03.206Z,21.07
2022-08-15T01:05:02.346Z,21.04
2022-08-15T01:05:58.989Z,21.04
2022-08-15T01:07:04.681Z,21.07
2022-08-15T01:07:58.134Z,21.03
2022-08-15T01:08:58.448Z,21.08
2022-08-15T01:10:00.103Z,21.04
2022-08-15T01:11:08.671Z,21.03
2022-08-15T01:12:03.550Z,21.05
2022-08-15T01:13:19.134Z,21.07
2022-08-15T01:15:09.828Z,20.89
2022-08-15T01:16:09.753Z,21
2022-08-15T01:17:12.975Z,20.98
2022-08-15T01:18:39.546Z,21.01
2022-08-15T01:19:17.027Z,20.92
2022-08-15T01:20:25.827Z,20.93
2022-08-15T01:21:29.481Z,20.95
2022-08-15T01:22:22.629Z,20.92
2022-08-15T01:23:53.105Z,20.95
2022-08-15T01:24:25.889Z,20.95
2022-08-15T01:26:53.957Z,20.9
2022-08-15T01:27:46.182Z,20.95
2022-08-15T01:28:45.501Z,20.9
2022-08-15T01:29:46.246Z,20.92
2022-08-15T01:31:10.595Z,20.89
2022-08-15T01:31:54.849Z,20.92
2022-08-15T01:32:46.701Z,20.92
2022-08-15T01:33:49.416Z,20.92
2022-08-15T01:34:51.360Z,20.85
2022-08-15T01:35:54.914Z,20.89
2022-08-15T01:36:50.281Z,20.82
2022-08-15T01:38:06.404Z,20.88
2022-08-15T01:39:18.341Z,20.86
2022-08-15T01:41:02.086Z,20.82
2022-08-15T01:41:42.172Z,20.82
2022-08-15T01:42:24.517Z,20.82
2022-08-15T01:43:25.103Z,20.83
2022-08-15T01:44:59.853Z,20.67
2022-08-15T01:45:31.092Z,20.77
2022-08-15T01:46:28.158Z,20.75
2022-08-15T01:47:31.140Z,20.73
2022-08-15T01:48:38.652Z,20.71
2022-08-15T01:49:28.772Z,20.77
2022-08-15T01:50:37.261Z,20.63
2022-08-15T01:51:28.922Z,20.7
2022-08-15T01:53:18.130Z,20.73
2022-08-15T01:54:09.554Z,20.73
2022-08-15T01:55:12.653Z,20.77
2022-08-15T01:56:46.616Z,20.7
2022-08-15T01:57:14.095Z,20.59
2022-08-15T01:58:13.746Z,20.71
2022-08-15T01:59:13.664Z,20.73
2022-08-15T02:00:27.245Z,20.63
2022-08-15T02:01:17.004Z,20.6
2022-08-15T02:02:47.999Z,20.64
2022-08-15T02:03:21.312Z,20.67
2022-08-15T02:04:36.610Z,20.63
2022-08-15T02:05:36.727Z,20.73
2022-08-15T02:06:41.885Z,20.68
2022-08-15T02:08:32.984Z,20.63
2022-08-15T02:08:54.404Z,20.64
2022-08-15T02:10:21.676Z,20.64
2022-08-15T02:10:54.727Z,20.68
2022-08-15T02:13:12.881Z,20.59
2022-08-15T02:13:46.014Z,20.71
2022-08-15T02:14:45.224Z,20.6
2022-08-15T02:15:44.422Z,20.64
2022-08-15T02:16:43.077Z,20.66
2022-08-15T02:17:46.000Z,20.63
2022-08-15T02:18:45.844Z,20.71
2022-08-15T02:19:56.597Z,20.6
2022-08-15T02:20:47.446Z,20.64
2022-08-15T02:21:50.554Z,20.71
2022-08-15T02:22:46.932Z,20.64
2022-08-15T02:23:47.115Z,20.71
2022-08-15T02:24:47.449Z,20.6
2022-08-15T02:25:50.618Z,20.66
2022-08-15T02:26:52.459Z,20.59
2022-08-15T02:27:57.629Z,20.71
2022-08-15T02:28:51.029Z,20.71
2022-08-15T02:29:58.945Z,20.63
2022-08-15T02:30:53.224Z,20.6
2022-08-15T02:31:53.866Z,20.59
2022-08-15T02:32:54.255Z,20.59
2022-08-15T02:33:54.760Z,20.58
2022-08-15T02:34:56.638Z,20.49
2022-08-15T02:35:59.291Z,20.55
2022-08-15T02:37:09.465Z,20.52
2022-08-15T02:38:19.251Z,20.52
2022-08-15T02:39:02.719Z,20.56
2022-08-15T02:40:51.372Z,20.34
2022-08-15T02:41:10.901Z,20.37
2022-08-15T02:42:11.909Z,20.37
2022-08-15T02:43:19.495Z,20.21
2022-08-15T02:44:23.179Z,20.29
2022-08-15T02:45:14.097Z,20.26
2022-08-15T02:47:03.911Z,20.22
2022-08-15T02:47:39.923Z,20.24
2022-08-15T02:48:40.859Z,20.27
2022-08-15T02:49:50.569Z,20.26
2022-08-15T02:50:42.943Z,20.26
2022-08-15T02:52:04.140Z,20.21
2022-08-15T02:52:42.468Z,20.26
2022-08-15T02:53:53.614Z,20.21
2022-08-15T02:55:08.611Z,20.17
2022-08-15T02:56:09.066Z,20.11
2022-08-15T02:57:10.238Z,20.18
2022-08-15T02:58:29.750Z,20.12
2022-08-15T02:59:16.441Z,20.22
2022-08-15T03:00:24.245Z,20.08
2022-08-15T03:01:16.584Z,20.12
2022-08-15T03:02:31.871Z,20.17
2022-08-15T03:03:17.826Z,20.14
2022-08-15T03:04:34.440Z,20.14
2022-08-15T03:05:17.189Z,20.07
2022-08-15T03:06:32.822Z,20.07
2022-08-15T03:07:31.435Z,20.17
2022-08-15T03:08:35.210Z,20.14
2022-08-15T03:09:56.984Z,20.18
2022-08-15T03:10:40.206Z,20.12
2022-08-15T03:12:31.157Z,20.18
2022-08-15T03:12:57.352Z,20.21
2022-08-15T03:13:56.039Z,20.21
2022-08-15T03:14:56.453Z,20.17
2022-08-15T03:16:04.929Z,20.17
2022-08-15T03:16:58.006Z,20.26
2022-08-15T03:17:57.392Z,20.19
2022-08-15T03:18:58.536Z,20.19
2022-08-15T03:20:05.254Z,20.26
2022-08-15T03:20:59.388Z,20.26
2022-08-15T03:22:01.798Z,20.21
2022-08-15T03:23:00.130Z,20.22
2022-08-15T03:24:02.785Z,20.21
2022-08-15T03:25:02.765Z,20.14
2022-08-15T03:26:02.828Z,20.21
2022-08-15T03:27:04.947Z,20.22
2022-08-15T03:28:28.858Z,20.24
2022-08-15T03:29:21.369Z,20.26
2022-08-15T03:30:20.129Z,20.32
2022-08-15T03:31:13.386Z,20.4
2022-08-15T03:32:33.928Z,20.5
2022-08-15T03:33:16.778Z,20.42
2022-08-15T03:34:16.257Z,20.39
2022-08-15T03:35:17.040Z,20.49
2022-08-15T03:36:23.634Z,20.4
2022-08-15T03:37:17.892Z,20.49
2022-08-15T03:38:56.056Z,20.56
2022-08-15T03:39:23.715Z,20.6
2022-08-15T03:40:30.069Z,20.55
2022-08-15T03:41:23.920Z,20.59
2022-08-15T03:42:37.070Z,20.67
2022-08-15T03:43:22.173Z,20.64
2022-08-15T03:44:33.663Z,20.68
2022-08-15T03:45:24.658Z,20.8
2022-08-15T03:46:31.895Z,20.86
2022-08-15T03:47:24.586Z,20.75
2022-08-15T03:48:28.898Z,20.89
2022-08-15T03:50:43.026Z,20.93
2022-08-15T03:51:11.278Z,21.05
2022-08-15T03:52:10.820Z,21.14
2022-08-15T03:53:10.476Z,21.33
2022-08-15T03:54:25.981Z,21.53
2022-08-15T03:55:18.056Z,21.6
2022-08-15T03:56:17.794Z,21.66
2022-08-15T03:57:17.382Z,21.7
2022-08-15T03:58:36.597Z,21.85
2022-08-15T03:59:40.571Z,21.81
2022-08-15T04:00:32.564Z,21.89
2022-08-15T04:01:35.720Z,21.84
2022-08-15T04:02:36.372Z,21.83
2022-08-15T04:03:34.265Z,21.85
2022-08-15T04:04:35.078Z,21.77
2022-08-15T04:05:46.711Z,21.69
2022-08-15T04:06:34.272Z,21.62
2022-08-15T04:07:57.745Z,21.72
2022-08-15T04:09:30.615Z,21.69
2022-08-15T04:10:52.745Z,21.69
2022-08-15T04:11:51.111Z,21.68
2022-08-15T04:12:59.817Z,21.63
2022-08-15T04:13:57.619Z,21.65
2022-08-15T04:14:54.439Z,21.72
2022-08-15T04:17:19.393Z,21.77
2022-08-15T04:18:50.917Z,21.81
2022-08-15T04:19:56.800Z,21.8
2022-08-15T04:20:52.845Z,21.77
2022-08-15T04:21:58.148Z,21.68
2022-08-15T04:23:09.461Z,21.7
2022-08-15T04:24:33.915Z,21.74
2022-08-15T04:25:23.147Z,21.7
2022-08-15T04:26:28.780Z,21.69
2022-08-15T04:27:11.751Z,21.68
2022-08-15T04:28:55.548Z,21.56
2022-08-15T04:29:22.905Z,21.59
2022-08-15T04:30:25.157Z,21.58
2022-08-15T04:31:24.451Z,21.47
2022-08-15T04:33:19.260Z,21.37
2022-08-15T04:35:30.736Z,21.28
2022-08-15T04:36:36.161Z,21.3
2022-08-15T04:37:33.963Z,21.25
2022-08-15T04:38:34.543Z,21.26
2022-08-15T04:39:39.216Z,21.19
2022-08-15T04:41:37.652Z,21.15
2022-08-15T04:42:04.221Z,21.14
2022-08-15T04:43:03.594Z,21.03
2022-08-15T04:44:04.359Z,21.04
2022-08-15T04:45:13.560Z,20.88
2022-08-15T04:46:22.926Z,20.89
2022-08-15T04:47:17.543Z,20.93
2022-08-15T04:48:28.228Z,20.82
2022-08-15T04:49:19.025Z,20.77
2022-08-15T04:50:28.642Z,20.77
2022-08-15T04:51:36.603Z,20.64
2022-08-15T04:52:20.893Z,20.64
2022-08-15T04:53:32.396Z,20.66
2022-08-15T04:54:21.638Z,20.59
2022-08-15T04:55:45.469Z,20.37
2022-08-15T04:56:59.651Z,20.4
2022-08-15T04:58:50.992Z,20.44
2022-08-15T05:00:13.582Z,20.24
2022-08-15T05:01:11.948Z,20.3
2022-08-15T05:03:01.864Z,20.24
2022-08-15T05:03:30.279Z,20.29
2022-08-15T05:04:36.931Z,20.26
2022-08-15T05:05:43.069Z,20.29
2022-08-15T05:06:37.019Z,20.27
2022-08-15T05:07:36.783Z,20.32
2022-08-15T05:08:37.249Z,20.27
2022-08-15T05:10:11.689Z,20.4
2022-08-15T05:10:42.146Z,20.34
2022-08-15T05:12:12.673Z,20.42
2022-08-15T05:12:42.700Z,20.39
2022-08-15T05:13:41.329Z,20.36
2022-08-15T05:14:56.553Z,20.52
2022-08-15T05:15:55.111Z,20.49
2022-08-15T05:16:44.358Z,20.5
2022-08-15T05:18:04.552Z,20.59
2022-08-15T05:18:52.899Z,20.64
2022-08-15T05:19:44.430Z,20.83
2022-08-15T05:20:45.233Z,20.93
2022-08-15T05:21:50.891Z,21.01
2022-08-15T05:22:55.401Z,21.13
2022-08-15T05:23:52.834Z,21.15
2022-08-15T05:24:50.077Z,21.26
2022-08-15T05:25:50.619Z,21.33
2022-08-15T05:27:04.408Z,21.43
2022-08-15T05:27:54.920Z,21.47
2022-08-15T05:28:59.320Z,21.54
2022-08-15T05:29:48.071Z,21.45
2022-08-15T05:30:58.680Z,21.59
2022-08-15T05:31:51.794Z,21.6
2022-08-15T05:32:55.202Z,21.72
2022-08-15T05:34:04.431Z,21.66
2022-08-15T05:34:54.576Z,21.65
2022-08-15T05:35:59.182Z,21.66
2022-08-15T05:36:52.613Z,21.74
2022-08-15T05:37:52.459Z,21.66
2022-08-15T05:38:59.812Z,21.65
2022-08-15T05:39:56.862Z,21.72
2022-08-15T05:40:55.672Z,21.54
2022-08-15T05:42:01.587Z,21.58
2022-08-15T05:42:56.933Z,21.47
2022-08-15T05:44:00.683Z,21.51
2022-08-15T05:45:00.241Z,21.48
2022-08-15T05:46:00.229Z,21.38
2022-08-15T05:47:01.242Z,21.32
2022-08-15T05:48:01.503Z,21.29
2022-08-15T05:49:02.316Z,21.25
2022-08-15T05:50:03.729Z,21.19
2022-08-15T05:51:06.432Z,21.07
2022-08-15T05:52:06.138Z,21
2022-08-15T05:53:10.886Z,20.92
2022-08-15T05:54:10.120Z,20.85
2022-08-15T05:55:07.167Z,20.78
2022-08-15T05:56:07.419Z,20.75
2022-08-15T05:57:07.907Z,20.64
2022-08-15T05:58:45.666Z,20.58
2022-08-15T05:59:09.670Z,20.55
2022-08-15T06:00:16.562Z,20.37
2022-08-15T06:01:15.629Z,20.29
2022-08-15T06:02:57.906Z,20.07
2022-08-15T06:03:17.779Z,20.03
2022-08-15T06:04:36.300Z,19.84
2022-08-15T06:05:18.209Z,19.71
2022-08-15T06:06:46.855Z,19.72
2022-08-15T06:07:20.874Z,19.78
2022-08-15T06:09:04.327Z,19.66
2022-08-15T06:09:38.757Z,19.66
2022-08-15T06:10:51.901Z,19.77
2022-08-15T06:11:46.879Z,19.74
2022-08-15T06:12:44.586Z,19.79
2022-08-15T06:13:46.236Z,19.77
2022-08-15T06:14:52.149Z,19.78
2022-08-15T06:15:56.269Z,19.75
2022-08-15T06:17:04.610Z,19.82
2022-08-15T06:18:00.479Z,19.79
2022-08-15T06:18:59.690Z,19.75
2022-08-15T06:19:59.978Z,19.62
2022-08-15T06:21:23.738Z,19.64
2022-08-15T06:22:28.831Z,19.57
2022-08-15T06:23:42.643Z,19.41
2022-08-15T06:24:33.944Z,19.32
2022-08-15T06:25:38.157Z,19.27
2022-08-15T06:26:40.440Z,19.24
2022-08-15T06:27:58.374Z,19.19
2022-08-15T06:29:05.323Z,19.07
2022-08-15T06:30:10.173Z,19.09
2022-08-15T06:31:06.707Z,19.04
2022-08-15T06:32:24.800Z,19.07
2022-08-15T06:33:09.661Z,19
2022-08-15T06:34:55.659Z,18.96
2022-08-15T06:35:17.833Z,18.92
2022-08-15T06:36:17.352Z,19.07
2022-08-15T06:37:19.571Z,18.97
2022-08-15T06:38:46.234Z,18.96
2022-08-15T06:39:21.176Z,19
2022-08-15T06:40:33.876Z,18.89
2022-08-15T06:41:25.260Z,18.96
2022-08-15T06:42:36.849Z,19.01
2022-08-15T06:43:37.145Z,18.97
2022-08-15T06:44:37.155Z,19.08
2022-08-15T06:45:37.445Z,19.15
2022-08-15T06:46:57.059Z,19.19
2022-08-15T06:47:43.300Z,19.11
2022-08-15T06:49:06.852Z,19.09
2022-08-15T06:49:43.232Z,19.08
2022-08-15T06:50:38.135Z,19.05
2022-08-15T06:51:51.758Z,19.11
2022-08-15T06:52:59.056Z,19.08
2022-08-15T06:53:50.344Z,19.22
2022-08-15T06:54:50.831Z,19.15
2022-08-15T06:55:55.237Z,19.09
2022-08-15T06:56:51.846Z,19.24
2022-08-15T06:57:52.668Z,19.34
2022-08-15T06:59:03.361Z,19.34
2022-08-15T07:00:03.602Z,19.37
2022-08-15T07:01:03.818Z,19.34
2022-08-15T07:02:40.833Z,19.45
2022-08-15T07:03:44.271Z,19.45
2022-08-15T07:04:43.444Z,19.48
2022-08-15T07:05:54.234Z,19.52
2022-08-15T07:06:46.881Z,19.48
2022-08-15T07:07:45.371Z,19.55
2022-08-15T07:08:45.996Z,19.55
2022-08-15T07:09:53.534Z,19.56
2022-08-15T07:10:55.071Z,19.62
2022-08-15T07:12:05.110Z,19.63
2022-08-15T07:13:00.412Z,19.63
2022-08-15T07:14:30.557Z,19.78
2022-08-15T07:15:29.958Z,19.75
2022-08-15T07:16:28.432Z,19.84
2022-08-15T07:17:38.180Z,19.75
2022-08-15T07:18:36.818Z,19.84
2022-08-15T07:19:35.384Z,19.82
2022-08-15T07:20:44.100Z,19.81
2022-08-15T07:21:59.602Z,19.87
2022-08-15T07:22:47.572Z,19.89
2022-08-15T07:23:51.036Z,19.93
2022-08-15T07:25:17.119Z,19.81
2022-08-15T07:26:16.052Z,19.79
2022-08-15T07:27:16.353Z,19.75
2022-08-15T07:28:30.249Z,19.66
2022-08-15T07:29:17.123Z,19.67
2022-08-15T07:30:30.732Z,19.67
2022-08-15T07:31:26.663Z,19.63
2022-08-15T07:32:43.285Z,19.66
2022-08-15T07:33:55.606Z,19.59
2022-08-15T07:34:40.799Z,19.66
2022-08-15T07:35:42.871Z,19.67
2022-08-15T07:36:45.338Z,19.67
2022-08-15T07:37:46.956Z,19.66
2022-08-15T07:38:44.961Z,19.63
2022-08-15T07:39:50.031Z,19.66
2022-08-15T07:40:57.196Z,19.62
2022-08-15T07:41:59.803Z,19.67
2022-08-15T07:43:07.122Z,19.72
2022-08-15T07:44:29.494Z,19.78
2022-08-15T07:45:11.060Z,19.75
2022-08-15T07:46:30.845Z,19.96
2022-08-15T07:47:35.090Z,20.04
2022-08-15T07:48:31.621Z,20.14
2022-08-15T07:49:36.014Z,20.27
2022-08-15T07:50:38.682Z,20.48
2022-08-15T07:51:46.079Z,20.73
2022-08-15T07:52:49.642Z,20.7
2022-08-15T07:53:41.204Z,20.83
2022-08-15T07:54:52.439Z,20.95
2022-08-15T07:56:47.522Z,20.89
2022-08-15T07:58:10.498Z,21.04
2022-08-15T07:59:11.321Z,21.14
2022-08-15T08:00:49.343Z,21.14
2022-08-15T08:03:20.526Z,21.25
2022-08-15T08:06:57.909Z,21.25
2022-08-15T08:07:57.641Z,21.19
2022-08-15T08:08:51.831Z,21.13
2022-08-15T08:09:53.064Z,21.1
2022-08-15T08:10:52.797Z,21.14
2022-08-15T08:11:55.347Z,21.13
2022-08-15T08:13:23.957Z,21.1
2022-08-15T08:13:59.959Z,21.11
2022-08-15T08:14:54.577Z,21.15
2022-08-15T08:16:09.659Z,21.11
2022-08-15T08:17:01.494Z,21.13
2022-08-15T08:18:48.851Z,21.19
2022-08-15T08:19:07.969Z,21.14
2022-08-15T08:20:10.963Z,21.14
2022-08-15T08:21:09.322Z,21.17
2022-08-15T08:22:10.408Z,21.17
2022-08-15T08:23:12.437Z,21.15
2022-08-15T08:24:13.981Z,21.2
2022-08-15T08:26:04.154Z,21.19
2022-08-15T08:26:38.310Z,21.15
2022-08-15T08:27:52.712Z,21.15
2022-08-15T08:28:53.382Z,21.25
2022-08-15T08:29:57.328Z,21.25
2022-08-15T08:30:55.078Z,21.26
2022-08-15T08:32:31.719Z,21.25
2022-08-15T08:33:00.236Z,21.26
2022-08-15T08:34:09.738Z,21.17
2022-08-15T08:35:01.361Z,21.15
2022-08-15T08:36:37.928Z,21.17
2022-08-15T08:37:04.158Z,21.13
2022-08-15T08:39:05.949Z,21.19
2022-08-15T08:40:08.088Z,21.11
2022-08-15T08:41:12.557Z,21.15
2022-08-15T08:42:20.781Z,21.29
2022-08-15T08:43:06.105Z,21.33
2022-08-15T08:44:23.018Z,21.35
2022-08-15T08:45:04.458Z,21.38
2022-08-15T08:46:05.246Z,21.47
2022-08-15T08:47:02.638Z,21.56
2022-08-15T08:48:05.469Z,21.54
2022-08-15T08:49:03.749Z,21.63
2022-08-15T08:50:45.252Z,21.65
2022-08-15T08:51:45.227Z,21.59
2022-08-15T08:52:56.262Z,21.6
2022-08-15T08:53:56.462Z,21.62
2022-08-15T08:55:08.906Z,21.8
2022-08-15T08:55:52.109Z,21.84
2022-08-15T08:56:47.873Z,22.03
2022-08-15T08:57:53.335Z,22.07
2022-08-15T08:58:51.349Z,22.19
2022-08-15T08:59:50.005Z,22.15
2022-08-15T09:00:52.258Z,22.25
2022-08-15T09:01:51.509Z,22.31
2022-08-15T09:02:59.656Z,22.33
2022-08-15T09:03:55.981Z,22.38
2022-08-15T09:04:56.086Z,22.43
2022-08-15T09:05:58.284Z,22.43
2022-08-15T09:06:56.853Z,22.38
2022-08-15T09:07:55.642Z,22.38
2022-08-15T09:08:55.675Z,22.4
2022-08-15T09:09:58.034Z,22.31
2022-08-15T09:11:04.790Z,22.37
2022-08-15T09:12:09.921Z,22.23
2022-08-15T09:13:09.232Z,22.34
2022-08-15T09:14:05.938Z,22.23
2022-08-15T09:15:17.319Z,22.3
2022-08-15T09:16:08.936Z,22.12
2022-08-15T09:17:33.528Z,22.14
2022-08-15T09:18:17.844Z,22.1
2022-08-15T09:19:18.388Z,21.94
2022-08-15T09:20:35.788Z,22
2022-08-15T09:21:38.736Z,21.78
2022-08-15T09:22:33.489Z,21.84
2022-08-15T09:23:39.845Z,21.75
2022-08-15T09:25:13.223Z,21.78
2022-08-15T09:25:43.276Z,21.69
2022-08-15T09:26:47.710Z,21.66
2022-08-15T09:28:00.836Z,21.69
2022-08-15T09:28:45.162Z,21.68
2022-08-15T09:30:48.754Z,21.63
2022-08-15T09:31:08.957Z,21.65
2022-08-15T09:32:38.435Z,21.65
2022-08-15T09:33:12.463Z,21.66
2022-08-15T09:34:12.678Z,21.62
2022-08-15T09:35:14.685Z,21.6
2022-08-15T09:36:27.973Z,21.63
2022-08-15T09:37:16.746Z,21.63
2022-08-15T09:38:31.625Z,21.66
2022-08-15T09:39:16.631Z,21.65
2022-08-15T09:41:21.222Z,21.65
2022-08-15T09:41:57.158Z,21.7
2022-08-15T09:43:23.449Z,21.63
2022-08-15T09:44:57.933Z,21.63
2022-08-15T09:45:50.846Z,21.6
2022-08-15T09:46:49.645Z,21.62
2022-08-15T09:47:59.297Z,21.66
2022-08-15T09:48:44.421Z,21.59
2022-08-15T09:49:46.513Z,21.66
2022-08-15T09:50:48.419Z,21.63
2022-08-15T09:51:50.842Z,21.59
2022-08-15T09:52:51.857Z,21.6
2022-08-15T09:54:32.543Z,21.62
2022-08-15T09:55:08.993Z,21.63
2022-08-15T09:56:14.715Z,21.59
2022-08-15T09:57:11.152Z,21.63
2022-08-15T09:58:19.650Z,21.65
2022-08-15T09:59:20.124Z,21.68
2022-08-15T10:00:21.407Z,21.65
2022-08-15T10:01:13.318Z,21.5
2022-08-15T10:02:45.336Z,21.53
2022-08-15T10:03:15.086Z,21.54
2022-08-15T10:04:29.017Z,21.51
2022-08-15T10:05:16.088Z,21.44
2022-08-15T10:06:43.699Z,21.4
2022-08-15T10:07:19.350Z,21.41
2022-08-15T10:08:30.114Z,21.41
2022-08-15T10:09:28.410Z,21.37
2022-08-15T10:10:20.905Z,21.33
2022-08-15T10:11:19.882Z,21.37
2022-08-15T10:12:19.264Z,21.33
2022-08-15T10:13:21.635Z,21.38
2022-08-15T10:14:22.193Z,21.38
2022-08-15T10:15:24.026Z,21.35
2022-08-15T10:16:21.562Z,21.43
2022-08-15T10:17:28.118Z,21.35
2022-08-15T10:18:26.383Z,21.38
2022-08-15T10:19:34.026Z,21.37
2022-08-15T10:20:34.586Z,21.37
2022-08-15T10:21:34.586Z,21.33
2022-08-15T10:22:51.269Z,21.38
2022-08-15T10:23:33.524Z,21.4
2022-08-15T10:25:06.132Z,21.44
2022-08-15T10:26:34.502Z,21.56
2022-08-15T10:27:10.612Z,21.66
2022-08-15T10:28:54.642Z,21.66
2022-08-15T10:29:20.526Z,21.69
2022-08-15T10:30:55.965Z,21.78
2022-08-15T10:31:18.995Z,21.81
2022-08-15T10:33:37.730Z,21.85
2022-08-15T10:34:20.605Z,21.96
2022-08-15T10:35:16.695Z,22.04
2022-08-15T10:36:45.581Z,22.23
2022-08-15T10:37:18.529Z,22.25
2022-08-15T10:38:38.452Z,22.33
2022-08-15T10:39:25.957Z,22.4
2022-08-15T10:40:29.826Z,22.51
2022-08-15T10:41:20.813Z,22.52
2022-08-15T10:42:29.322Z,22.53
2022-08-15T10:43:56.022Z,22.58
2022-08-15T10:44:41.258Z,22.65
2022-08-15T10:45:46.905Z,22.81
2022-08-15T10:46:50.877Z,22.71
2022-08-15T10:48:02.443Z,22.8
2022-08-15T10:48:56.984Z,22.95
2022-08-15T10:50:10.742Z,23.04
2022-08-15T10:50:53.121Z,23.02
2022-08-15T10:51:52.984Z,23.11
2022-08-15T10:52:57.645Z,23.14
2022-08-15T10:53:57.722Z,23.25
2022-08-15T10:54:57.963Z,23.26
2022-08-15T10:56:05.244Z,23.32
2022-08-15T10:57:52.346Z,23.49
2022-08-15T10:58:48.449Z,23.51
2022-08-15T10:59:59.191Z,23.66
2022-08-15T11:00:58.637Z,23.74
2022-08-15T11:02:00.193Z,23.89
2022-08-15T11:03:16.324Z,24.06
2022-08-15T11:05:07.868Z,24.34
2022-08-15T11:06:03.429Z,24.46
2022-08-15T11:07:07.268Z,24.5
2022-08-15T11:08:04.570Z,24.58
2022-08-15T11:09:05.237Z,24.5
2022-08-15T11:10:24.246Z,24.84
2022-08-15T11:11:06.418Z,25.03
2022-08-15T11:12:16.964Z,25.31
2022-08-15T11:13:14.613Z,25.54
2022-08-15T11:14:08.419Z,25.85
2022-08-15T11:15:23.459Z,26.16
2022-08-15T11:16:43.953Z,26.46
2022-08-15T11:17:11.747Z,26.45
2022-08-15T11:18:59.189Z,26.39
2022-08-15T11:20:24.277Z,26.46
2022-08-15T11:21:22.011Z,26.49
2022-08-15T11:22:25.485Z,26.59
2022-08-15T11:23:23.751Z,26.42
2022-08-15T11:24:24.422Z,26.49
2022-08-15T11:25:25.112Z,26.45
2022-08-15T11:26:33.824Z,26.46
2022-08-15T11:27:34.558Z,26.6
2022-08-15T11:28:57.178Z,26.78
2022-08-15T11:29:28.266Z,26.78
2022-08-15T11:30:38.727Z,26.78
2022-08-15T11:31:42.949Z,26.79
2022-08-15T11:32:41.746Z,26.67
2022-08-15T11:33:46.930Z,26.63
2022-08-15T11:34:51.192Z,26.71
2022-08-15T11:35:50.754Z,26.93
2022-08-15T11:36:42.171Z,27.03
2022-08-15T11:37:44.682Z,27.03
2022-08-15T11:39:18.548Z,27.03
2022-08-15T11:39:44.161Z,27.07
2022-08-15T11:40:47.444Z,27.18
2022-08-15T11:42:01.608Z,27.41
2022-08-15T11:43:11.855Z,27.63
2022-08-15T11:43:48.770Z,27.73
2022-08-15T11:44:50.386Z,27.83
2022-08-15T11:45:56.626Z,27.79
2022-08-15T11:46:51.279Z,27.78
2022-08-15T11:47:52.946Z,27.79
2022-08-15T11:48:59.041Z,27.68
2022-08-15T11:49:58.344Z,27.78
2022-08-15T11:50:59.578Z,27.75
2022-08-15T11:52:51.282Z,27.64
2022-08-15T11:53:16.237Z,27.38
2022-08-15T11:54:35.381Z,27.26
2022-08-15T11:55:28.702Z,27.37
2022-08-15T11:56:49.112Z,27.44
2022-08-15T11:57:52.558Z,27.48
2022-08-15T11:58:29.244Z,27.66
2022-08-15T11:59:34.760Z,27.85
2022-08-15T12:00:31.291Z,27.91
2022-08-15T12:01:29.615Z,28.12
2022-08-15T12:02:44.462Z,28.22
2022-08-15T12:07:52.012Z,28.83
2022-08-15T12:09:06.176Z,28.82
2022-08-15T12:12:16.332Z,28.94
2022-08-15T12:14:00.464Z,29.18
2022-08-15T12:15:01.031Z,29.34
2022-08-15T12:16:00.454Z,29.42
2022-08-15T12:17:12.729Z,29.46
2022-08-15T12:18:46.707Z,29.62
2022-08-15T12:19:13.673Z,29.71
2022-08-15T12:20:35.180Z,29.86
2022-08-15T12:21:14.327Z,29.96
2022-08-15T12:23:03.880Z,30.24
2022-08-15T12:23:34.489Z,30.33
2022-08-15T12:24:48.106Z,30.54
2022-08-15T12:26:03.056Z,30.58
2022-08-15T12:27:23.161Z,30.62
2022-08-15T12:28:53.655Z,30.46
2022-08-15T12:29:27.382Z,30.36
2022-08-15T12:30:27.057Z,30.33
2022-08-15T12:31:24.059Z,30.21
2022-08-15T12:32:43.300Z,30.49
2022-08-15T12:33:24.666Z,30.44
2022-08-15T12:34:38.957Z,30.51
2022-08-15T12:36:07.934Z,30.46
2022-08-15T12:37:51.152Z,30.55
2022-08-15T12:38:46.496Z,30.43
2022-08-15T12:39:54.791Z,30.32
2022-08-15T12:43:00.193Z,29.58
2022-08-15T12:43:24.036Z,29.44
2022-08-15T12:44:24.612Z,29.22
2022-08-15T12:45:38.686Z,29.05
2022-08-15T12:46:27.513Z,28.93
2022-08-15T12:48:08.229Z,28.67
2022-08-15T12:49:16.841Z,28.9
2022-08-15T12:50:25.789Z,29
2022-08-15T12:51:16.543Z,28.93
2022-08-15T12:52:26.103Z,28.97
2022-08-15T12:53:20.670Z,28.87
2022-08-15T12:54:38.685Z,28.7
2022-08-15T12:57:10.041Z,28.64
2022-08-15T12:58:02.427Z,28.64
2022-08-15T12:58:31.362Z,28.71
2022-08-15T12:59:31.858Z,28.77
2022-08-15T13:01:13.669Z,28.67
2022-08-15T13:02:05.092Z,28.62
2022-08-15T13:03:06.258Z,28.77
2022-08-15T13:04:57.445Z,28.89
2022-08-15T13:06:31.445Z,29.02
2022-08-15T13:07:14.572Z,29.12
2022-08-15T13:08:41.016Z,29.27
2022-08-15T13:09:33.960Z,29.42
2022-08-15T13:11:16.245Z,29.76
2022-08-15T13:12:18.785Z,29.73
2022-08-15T13:13:05.850Z,29.9
2022-08-15T13:14:07.484Z,30.23
2022-08-15T13:15:07.255Z,30.27
2022-08-15T13:17:12.054Z,30.26
2022-08-15T13:18:23.188Z,30.06
2022-08-15T13:19:24.279Z,29.62
2022-08-15T13:20:17.481Z,29.25
2022-08-15T13:21:15.027Z,28.96
2022-08-15T13:22:37.392Z,28.84
2022-08-15T13:24:11.064Z,28.82
2022-08-15T13:24:48.369Z,28.49
2022-08-15T13:25:36.645Z,28.57
2022-08-15T13:26:43.718Z,28.57
2022-08-15T13:27:39.109Z,28.49
2022-08-15T13:28:45.011Z,28.6
2022-08-15T13:29:56.405Z,28.59
2022-08-15T13:31:06.457Z,28.78
2022-08-15T13:31:40.301Z,28.9
2022-08-15T13:32:43.843Z,29.02
2022-08-15T13:33:44.456Z,29.05
2022-08-15T13:34:53.456Z,29.09
2022-08-15T13:36:30.685Z,29.24
2022-08-15T13:37:01.610Z,29.25
2022-08-15T13:38:24.823Z,29.43
2022-08-15T13:39:28.648Z,29.46
2022-08-15T13:40:25.461Z,29.53
2022-08-15T13:41:20.187Z,29.55
2022-08-15T13:42:47.192Z,29.62
2022-08-15T13:44:04.421Z,29.57
2022-08-15T13:46:00.223Z,29.62
2022-08-15T13:46:50.942Z,29.35
2022-08-15T13:47:59.901Z,29.27
2022-08-15T13:48:48.263Z,29.06
2022-08-15T13:49:43.229Z,29.02
2022-08-15T13:50:46.588Z,28.89
2022-08-15T13:52:51.133Z,28.89
2022-08-15T13:53:12.406Z,28.84
2022-08-15T13:54:52.391Z,28.92
2022-08-15T13:55:30.125Z,28.89
2022-08-15T13:56:41.960Z,28.93
2022-08-15T13:58:12.280Z,29.05
2022-08-15T13:58:43.176Z,29.05
2022-08-15T13:59:41.792Z,29.22
2022-08-15T14:01:10.266Z,29.46
2022-08-15T14:01:43.192Z,29.64
2022-08-15T14:02:47.490Z,29.84
2022-08-15T14:03:45.686Z,30.02
2022-08-15T14:04:59.327Z,30.11
2022-08-15T14:05:49.104Z,30.24
2022-08-15T14:06:56.153Z,30.23